createdAt,value
2019-03-04T00:01:19.069Z,16.10
2019-03-04T00:03:46.321Z,16.00
2019-03-04T00:06:13.679Z,16.00
2019-03-04T00:08:41.141Z,16.00
2019-03-04T00:11:08.572Z,16.00
2019-03-04T00:13:35.924Z,18.00
2019-03-04T00:16:03.282Z,15.90
2019-03-04T00:18:30.621Z,15.90
2019-03-04T00:20:58.039Z,15.90
2019-03-04T00:23:25.435Z,15.90
2019-03-04T00:25:52.849Z,15.90
2019-03-04T00:28:20.309Z,15.90
2019-03-04T00:30:47.723Z,15.90
2019-03-04T00:33:15.116Z,15.90
2019-03-04T00:35:42.487Z,15.90
2019-03-04T00:38:09.829Z,15.90
2019-03-04T00:40:37.228Z,15.90
2019-03-04T00:43:04.520Z,15.90
2019-03-04T00:45:32.045Z,15.90
2019-03-04T00:47:59.415Z,15.90
2019-03-04T00:50:26.782Z,15.90
2019-03-04T00:52:54.259Z,15.90
2019-03-04T00:55:21.574Z,15.90
2019-03-04T00:57:49.004Z,15.90
2019-03-04T01:00:22.909Z,15.90
2019-03-04T01:02:50.680Z,16.00
2019-03-04T01:05:18.132Z,15.90
2019-03-04T01:07:45.476Z,15.80
2019-03-04T01:10:13.387Z,15.80
2019-03-04T01:12:41.015Z,15.80
2019-03-04T01:15:10.727Z,15.80
2019-03-04T01:17:38.141Z,15.80
2019-03-04T01:20:10.611Z,15.80
2019-03-04T01:22:38.114Z,15.80
2019-03-04T01:25:07.193Z,15.80
2019-03-04T01:27:34.618Z,15.80
2019-03-04T01:30:01.953Z,15.80
2019-03-04T01:32:29.370Z,15.80
2019-03-04T01:34:56.776Z,15.80
2019-03-04T01:37:24.222Z,15.80
2019-03-04T01:39:51.638Z,15.80
2019-03-04T01:42:18.960Z,15.70
2019-03-04T01:44:46.309Z,15.70
2019-03-04T01:47:13.613Z,15.70
2019-03-04T01:49:40.994Z,15.70
2019-03-04T01:52:08.517Z,15.70
2019-03-04T01:54:35.954Z,15.70
2019-03-04T01:57:03.373Z,15.70
2019-03-04T01:59:30.753Z,15.70
2019-03-04T02:01:58.100Z,15.60
2019-03-04T02:04:25.653Z,15.60
2019-03-04T02:06:53.063Z,15.60
2019-03-04T02:09:20.802Z,15.60
2019-03-04T02:11:48.203Z,15.60
2019-03-04T02:14:15.651Z,15.60
2019-03-04T02:16:43.056Z,15.60
2019-03-04T02:19:10.497Z,15.60
2019-03-04T02:21:37.993Z,15.60
2019-03-04T02:24:18.425Z,15.60
2019-03-04T02:26:45.873Z,15.60
2019-03-04T02:29:13.376Z,15.50
2019-03-04T02:31:41.003Z,15.60
2019-03-04T02:34:08.460Z,15.50
2019-03-04T02:36:35.876Z,15.60
2019-03-04T02:39:04.698Z,15.50
2019-03-04T02:41:32.258Z,15.40
2019-03-04T02:43:59.674Z,15.40
2019-03-04T02:46:27.212Z,15.30
2019-03-04T02:48:54.676Z,15.40
2019-03-04T02:51:22.231Z,15.30
2019-03-04T02:53:49.720Z,15.20
2019-03-04T02:56:17.353Z,15.20
2019-03-04T02:58:44.806Z,15.20
2019-03-04T03:01:12.884Z,15.10
2019-03-04T03:03:40.363Z,15.00
2019-03-04T03:06:07.798Z,15.50
2019-03-04T03:08:35.143Z,15.00
2019-03-04T03:11:02.597Z,15.00
2019-03-04T03:13:30.098Z,15.00
2019-03-04T03:15:57.551Z,15.00
2019-03-04T03:18:24.887Z,15.00
2019-03-04T03:20:52.362Z,14.90
2019-03-04T03:23:19.754Z,14.90
2019-03-04T03:25:47.248Z,14.90
2019-03-04T03:28:14.713Z,14.90
2019-03-04T03:30:42.158Z,14.90
2019-03-04T03:33:09.684Z,14.90
2019-03-04T03:35:37.148Z,14.80
2019-03-04T03:38:04.610Z,17.70
2019-03-04T03:40:32.030Z,14.80
2019-03-04T03:42:59.473Z,14.70
2019-03-04T03:45:26.897Z,14.70
2019-03-04T03:47:54.360Z,14.80
2019-03-04T03:50:21.902Z,14.70
2019-03-04T03:52:49.269Z,16.00
2019-03-04T03:55:16.787Z,14.60
2019-03-04T03:57:44.342Z,14.60
2019-03-04T04:00:13.823Z,14.60
2019-03-04T04:02:41.284Z,14.50
2019-03-04T04:05:08.788Z,14.50
2019-03-04T04:07:36.371Z,14.50
2019-03-04T04:10:08.042Z,14.50
2019-03-04T04:12:35.522Z,14.60
2019-03-04T04:15:03.636Z,14.40
2019-03-04T04:17:31.092Z,14.50
2019-03-04T04:19:58.946Z,14.60
2019-03-04T04:22:26.416Z,14.40
2019-03-04T04:24:53.754Z,14.50
2019-03-04T04:27:21.138Z,14.40
2019-03-04T04:29:48.539Z,14.50
2019-03-04T04:32:16.012Z,14.40
2019-03-04T04:34:43.395Z,14.40
2019-03-04T04:37:11.158Z,14.40
2019-03-04T04:39:38.618Z,12.90
2019-03-04T04:42:05.968Z,14.40
2019-03-04T04:44:33.354Z,14.40
2019-03-04T04:47:06.532Z,14.30
2019-03-04T04:49:34.240Z,14.40
2019-03-04T04:52:01.757Z,14.30
2019-03-04T04:54:29.328Z,16.10
2019-03-04T04:56:56.670Z,16.70
2019-03-04T04:59:24.249Z,14.30
2019-03-04T05:01:51.609Z,14.30
2019-03-04T05:04:19.106Z,15.40
2019-03-04T05:06:46.560Z,14.70
2019-03-04T05:09:13.931Z,16.80
2019-03-04T05:11:41.508Z,14.20
2019-03-04T05:14:08.946Z,14.10
2019-03-04T05:16:37.072Z,14.30
2019-03-04T05:19:04.617Z,14.20
2019-03-04T05:21:32.138Z,14.20
2019-03-04T05:23:59.518Z,15.60
2019-03-04T05:26:28.044Z,15.70
2019-03-04T05:28:55.611Z,14.20
2019-03-04T05:31:23.094Z,11.60
2019-03-04T05:33:50.511Z,15.70
2019-03-04T05:36:18.091Z,14.20
2019-03-04T05:38:45.544Z,14.20
2019-03-04T05:41:13.055Z,14.20
2019-03-04T05:43:41.572Z,14.20
2019-03-04T05:46:09.105Z,14.20
2019-03-04T05:48:36.599Z,14.20
2019-03-04T05:51:04.450Z,14.30
2019-03-04T05:53:31.945Z,14.20
2019-03-04T05:55:59.465Z,14.30
2019-03-04T05:58:27.131Z,14.20
2019-03-04T06:01:24.173Z,14.30
2019-03-04T06:03:53.868Z,14.20
2019-03-04T06:06:59.741Z,15.00
2019-03-04T06:09:27.606Z,14.30
2019-03-04T06:11:55.306Z,14.20
2019-03-04T06:14:22.973Z,14.20
2019-03-04T06:16:50.505Z,14.20
2019-03-04T06:19:17.940Z,14.20
2019-03-04T06:21:45.417Z,15.70
2019-03-04T06:24:12.892Z,15.40
2019-03-04T06:26:40.335Z,14.20
2019-03-04T06:29:07.792Z,14.30
2019-03-04T06:31:35.223Z,14.20
2019-03-04T06:34:02.850Z,14.30
2019-03-04T06:36:30.385Z,14.30
2019-03-04T06:38:57.913Z,14.30
2019-03-04T06:41:25.377Z,14.40
2019-03-04T06:43:52.819Z,14.30
2019-03-04T06:46:22.643Z,14.30
2019-03-04T06:48:50.031Z,14.30
2019-03-04T06:51:30.736Z,14.40
2019-03-04T06:54:04.997Z,14.40
2019-03-04T06:56:42.592Z,14.40
2019-03-04T06:59:15.620Z,14.40
2019-03-04T07:01:46.856Z,14.40
2019-03-04T07:04:31.872Z,14.50
2019-03-04T07:06:59.354Z,14.40
2019-03-04T07:09:26.858Z,14.50
2019-03-04T07:11:54.481Z,14.50
2019-03-04T07:14:22.010Z,14.50
2019-03-04T07:16:50.588Z,14.60
2019-03-04T07:19:27.653Z,14.60
2019-03-04T07:21:55.279Z,14.60
2019-03-04T07:24:22.757Z,14.70
2019-03-04T07:26:50.203Z,14.70
2019-03-04T07:29:17.677Z,14.80
2019-03-04T07:31:45.114Z,12.10
2019-03-04T07:34:12.602Z,14.80
2019-03-04T07:36:40.853Z,14.90
2019-03-04T07:39:19.393Z,15.00
2019-03-04T07:41:48.646Z,15.10
2019-03-04T07:44:16.189Z,12.10
2019-03-04T07:46:43.617Z,15.10
2019-03-04T07:49:11.044Z,15.20
2019-03-04T07:51:39.167Z,15.30
2019-03-04T07:54:06.520Z,17.80
2019-03-04T07:56:33.971Z,15.30
2019-03-04T07:59:01.495Z,15.40
2019-03-04T08:01:28.962Z,15.40
2019-03-04T08:03:58.955Z,15.40
2019-03-04T08:06:26.544Z,15.50
2019-03-04T08:09:53.900Z,15.60
2019-03-04T08:12:52.245Z,15.60
2019-03-04T08:15:19.809Z,15.70
2019-03-04T08:17:47.260Z,15.80
2019-03-04T08:20:14.762Z,15.90
2019-03-04T08:22:42.077Z,15.90
2019-03-04T08:25:12.579Z,16.00
2019-03-04T08:27:40.098Z,16.10
2019-03-04T08:30:11.240Z,16.40
2019-03-04T08:32:38.717Z,16.50
2019-03-04T08:35:06.218Z,16.80
2019-03-04T08:37:34.719Z,17.00
2019-03-04T08:40:02.050Z,17.30
2019-03-04T08:42:29.514Z,17.70
2019-03-04T08:44:56.976Z,18.10
2019-03-04T08:47:24.457Z,18.40
2019-03-04T08:49:51.870Z,18.80
2019-03-04T08:52:19.602Z,19.20
2019-03-04T08:54:46.975Z,19.50
2019-03-04T08:57:14.398Z,19.80
2019-03-04T08:59:41.778Z,20.20
2019-03-04T09:02:09.192Z,20.50
2019-03-04T09:04:36.579Z,20.90
2019-03-04T09:07:04.109Z,21.20
2019-03-04T09:09:31.755Z,21.60
2019-03-04T09:11:59.046Z,21.90
2019-03-04T09:14:26.458Z,22.30
2019-03-04T09:16:53.901Z,22.60
2019-03-04T09:19:21.324Z,22.90
2019-03-04T09:21:48.970Z,23.20
2019-03-04T09:24:16.409Z,23.60
2019-03-04T09:26:43.851Z,23.90
2019-03-04T09:29:11.271Z,24.20
2019-03-04T09:31:38.699Z,24.40
2019-03-04T09:34:06.111Z,24.80
2019-03-04T09:36:34.187Z,25.10
2019-03-04T09:39:04.866Z,25.40
2019-03-04T09:41:32.309Z,25.70
2019-03-04T09:43:59.903Z,25.90
2019-03-04T09:46:56.594Z,26.20
2019-03-04T09:49:51.146Z,26.50
2019-03-04T09:52:27.742Z,26.70
2019-03-04T09:54:55.416Z,26.90
2019-03-04T09:57:23.054Z,24.60
2019-03-04T09:59:50.645Z,26.80
2019-03-04T10:02:32.408Z,26.70
2019-03-04T10:05:34.447Z,26.60
2019-03-04T10:08:32.548Z,26.70
2019-03-04T10:11:21.780Z,26.70
2019-03-04T10:14:36.762Z,26.40
2019-03-04T10:17:21.024Z,26.80
2019-03-04T10:20:23.826Z,27.00
2019-03-04T10:23:26.289Z,27.10
2019-03-04T10:26:04.600Z,27.30
2019-03-04T10:29:25.608Z,27.50
2019-03-04T10:32:13.441Z,27.60
2019-03-04T10:35:06.606Z,27.70
2019-03-04T10:38:02.093Z,27.50
2019-03-04T10:41:29.859Z,27.30
2019-03-04T10:44:37.977Z,27.00
2019-03-04T10:47:03.527Z,26.70
2019-03-04T10:49:37.507Z,26.40
2019-03-04T10:52:04.947Z,26.20
2019-03-04T10:54:32.405Z,26.30
2019-03-04T10:56:59.902Z,26.30
2019-03-04T10:59:27.289Z,26.40
2019-03-04T11:02:05.964Z,26.60
2019-03-04T11:04:33.602Z,26.70
2019-03-04T11:07:01.140Z,26.90
2019-03-04T11:09:28.703Z,27.20
2019-03-04T11:11:57.947Z,27.40
2019-03-04T11:14:25.598Z,27.50
2019-03-04T11:16:53.283Z,27.30
2019-03-04T11:19:20.804Z,27.00
2019-03-04T11:21:48.280Z,26.70
2019-03-04T11:24:16.561Z,26.20
2019-03-04T11:26:44.123Z,25.70
2019-03-04T11:29:13.281Z,25.30
2019-03-04T11:31:41.100Z,24.90
2019-03-04T11:34:08.583Z,24.40
2019-03-04T11:36:37.669Z,24.10
2019-03-04T11:39:25.934Z,24.90
2019-03-04T11:41:53.435Z,23.40
2019-03-04T11:44:21.071Z,23.00
2019-03-04T11:46:48.513Z,22.80
2019-03-04T11:49:15.913Z,22.50
2019-03-04T11:51:43.326Z,22.20
2019-03-04T11:54:10.753Z,21.90
2019-03-04T11:56:38.461Z,21.60
2019-03-04T11:59:05.931Z,21.30
2019-03-04T12:01:45.801Z,21.00
2019-03-04T12:04:13.127Z,20.70
2019-03-04T12:06:40.657Z,20.40
2019-03-04T12:09:14.566Z,23.70
2019-03-04T12:11:41.854Z,18.00
2019-03-04T12:14:09.517Z,19.40
2019-03-04T12:17:14.816Z,19.20
2019-03-04T12:19:42.234Z,19.00
2019-03-04T12:22:09.863Z,18.80
2019-03-04T12:24:37.285Z,18.60
2019-03-04T12:27:24.331Z,18.60
2019-03-04T12:29:51.917Z,18.20
2019-03-04T12:32:26.739Z,18.20
2019-03-04T12:34:54.153Z,17.90
2019-03-04T12:37:21.785Z,17.70
2019-03-04T12:39:49.205Z,17.50
2019-03-04T12:42:16.744Z,17.40
2019-03-04T12:49:38.856Z,16.80
2019-03-04T12:52:25.994Z,16.70
2019-03-04T12:57:21.034Z,16.40
2019-03-04T12:59:51.510Z,16.30
2019-03-04T13:02:19.742Z,16.20
2019-03-04T13:04:47.203Z,16.00
2019-03-04T13:07:14.633Z,16.00
2019-03-04T13:10:09.753Z,13.30
2019-03-04T13:12:37.184Z,15.90
2019-03-04T13:15:07.080Z,15.80
2019-03-04T13:17:34.828Z,15.80
2019-03-04T13:20:02.374Z,15.60
2019-03-04T13:22:29.817Z,15.50
2019-03-04T13:24:59.732Z,15.30
2019-03-04T13:27:28.463Z,15.30
2019-03-04T13:29:55.838Z,15.20
2019-03-04T13:32:23.192Z,15.00
2019-03-04T13:34:50.711Z,14.90
2019-03-04T13:37:18.188Z,15.00
2019-03-04T13:39:45.568Z,14.80
2019-03-04T13:42:13.071Z,14.70
2019-03-04T13:44:40.512Z,14.50
2019-03-04T13:47:07.928Z,14.50
2019-03-04T13:49:35.268Z,14.50
2019-03-04T13:52:02.800Z,14.50
2019-03-04T13:54:30.587Z,14.30
2019-03-04T13:56:58.056Z,14.30
2019-03-04T13:59:25.602Z,14.20
2019-03-04T14:01:52.948Z,14.20
2019-03-04T14:04:20.354Z,14.10
2019-03-04T14:06:47.894Z,14.10
2019-03-04T14:09:18.278Z,14.10
2019-03-04T14:11:45.911Z,14.10
2019-03-04T14:14:13.544Z,14.00
2019-03-04T14:16:41.252Z,14.00
2019-03-04T14:19:08.905Z,13.90
2019-03-04T14:21:36.417Z,13.90
2019-03-04T14:24:04.923Z,13.90
2019-03-04T14:26:32.832Z,13.90
2019-03-04T14:29:06.222Z,13.80
2019-03-04T14:31:33.856Z,13.80
2019-03-04T14:34:01.940Z,13.60
2019-03-04T14:36:29.588Z,13.80
2019-03-04T14:38:57.418Z,13.80
2019-03-04T14:41:26.250Z,14.00
2019-03-04T14:43:53.888Z,13.70
2019-03-04T14:46:24.014Z,13.90
2019-03-04T14:48:51.477Z,13.70
2019-03-04T14:51:19.146Z,13.70
2019-03-04T14:53:47.647Z,13.70
2019-03-04T14:56:26.838Z,13.60
2019-03-04T14:59:09.752Z,13.60
2019-03-04T15:01:24.475Z,13.60
2019-03-04T15:04:02.580Z,13.60
2019-03-04T15:06:31.059Z,13.60
2019-03-04T15:09:00.735Z,13.60
2019-03-04T15:11:30.226Z,13.60
2019-03-04T15:14:05.030Z,13.60
2019-03-04T15:16:35.704Z,11.30
2019-03-04T15:19:27.431Z,13.50
2019-03-04T15:21:55.457Z,13.50
2019-03-04T15:24:23.833Z,13.40
2019-03-04T15:26:54.526Z,13.50
2019-03-04T15:29:26.099Z,13.40
2019-03-04T15:31:55.151Z,13.60
2019-03-04T15:36:52.117Z,13.40
2019-03-04T15:39:23.193Z,16.50
2019-03-04T15:41:50.550Z,13.60
2019-03-04T15:44:18.112Z,13.50
2019-03-04T15:46:45.732Z,13.50
2019-03-04T15:49:13.064Z,16.10
2019-03-04T15:51:40.547Z,16.80
2019-03-04T15:54:08.290Z,13.50
2019-03-04T15:56:35.700Z,13.60
2019-03-04T15:59:03.301Z,13.60
2019-03-04T16:01:30.956Z,13.60
2019-03-04T16:03:58.585Z,13.60
2019-03-04T16:06:26.155Z,13.60
2019-03-04T16:08:53.659Z,17.40
2019-03-04T16:11:21.180Z,13.60
2019-03-04T16:13:54.036Z,13.60
2019-03-04T16:16:17.988Z,13.70
2019-03-04T16:18:46.510Z,13.60
2019-03-04T16:21:13.895Z,16.60
2019-03-04T16:23:41.458Z,13.80
2019-03-04T16:26:11.880Z,13.80
2019-03-04T16:31:06.886Z,13.80
2019-03-04T16:33:34.358Z,13.80
2019-03-04T16:36:01.762Z,14.70
2019-03-04T16:38:29.332Z,13.90
2019-03-04T16:40:56.809Z,14.00
2019-03-04T16:43:24.330Z,14.00
2019-03-04T16:45:51.855Z,14.00
2019-03-04T16:48:19.292Z,14.00
2019-03-04T16:50:46.780Z,14.00
2019-03-04T16:53:15.075Z,14.10
2019-03-04T16:55:42.404Z,18.10
2019-03-04T16:58:09.912Z,14.20
2019-03-04T17:00:37.356Z,12.60
2019-03-04T17:03:04.833Z,14.20
2019-03-04T17:05:32.232Z,14.20
2019-03-04T17:07:59.640Z,16.70
2019-03-04T17:10:27.075Z,14.30
2019-03-04T17:12:54.686Z,14.40
2019-03-04T17:15:22.089Z,14.30
2019-03-04T17:17:49.936Z,14.30
2019-03-04T17:20:17.616Z,11.40
2019-03-04T17:22:45.104Z,14.40
2019-03-04T17:25:13.698Z,14.40
2019-03-04T17:27:41.555Z,14.90
2019-03-04T17:30:15.266Z,14.40
2019-03-04T17:32:42.842Z,14.30
2019-03-04T17:35:12.336Z,14.30
2019-03-04T17:37:39.873Z,14.30
2019-03-04T17:40:09.216Z,16.10
2019-03-04T17:42:36.652Z,14.30
2019-03-04T17:45:04.476Z,14.30
2019-03-04T17:47:31.985Z,17.70
2019-03-04T17:49:59.382Z,14.30
2019-03-04T17:55:14.523Z,14.20
2019-03-04T17:57:41.958Z,14.20
2019-03-04T18:00:12.424Z,14.20
2019-03-04T18:02:42.814Z,14.20
2019-03-04T18:05:10.590Z,14.10
2019-03-04T18:07:38.983Z,14.10
2019-03-04T18:10:09.623Z,14.10
2019-03-04T18:12:37.021Z,14.10
2019-03-04T18:15:07.364Z,14.10
2019-03-04T18:17:34.899Z,14.30
2019-03-04T18:20:02.534Z,14.00
2019-03-04T18:22:30.119Z,14.00
2019-03-04T18:24:57.590Z,14.00
2019-03-04T18:27:51.395Z,13.90
2019-03-04T18:31:03.707Z,14.00
2019-03-04T18:34:06.940Z,13.90
2019-03-04T18:36:44.646Z,13.90
2019-03-04T18:40:02.516Z,13.90
2019-03-04T18:43:07.667Z,13.90
2019-03-04T18:46:01.880Z,13.80
2019-03-04T18:48:54.907Z,13.70
2019-03-04T18:51:23.167Z,13.60
2019-03-04T18:53:53.000Z,13.60
2019-03-04T18:56:22.267Z,13.60
2019-03-04T18:58:49.908Z,13.50
2019-03-04T19:01:17.602Z,13.60
2019-03-04T19:03:45.477Z,13.50
2019-03-04T19:06:13.824Z,13.50
2019-03-04T19:08:41.309Z,13.40
2019-03-04T19:11:08.875Z,13.40
2019-03-04T19:13:36.528Z,14.00
2019-03-04T19:16:04.183Z,13.40
2019-03-04T19:18:31.648Z,13.40
2019-03-04T19:20:59.177Z,13.40
2019-03-04T19:23:26.760Z,13.40
2019-03-04T19:25:54.166Z,13.30
2019-03-04T19:28:21.664Z,13.30
2019-03-04T19:30:49.429Z,13.20
2019-03-04T19:33:16.988Z,13.20
2019-03-04T19:35:44.441Z,13.10
2019-03-04T19:38:12.036Z,13.10
2019-03-04T19:40:39.621Z,13.00
2019-03-04T19:45:34.677Z,12.90
2019-03-04T19:48:02.179Z,12.90
2019-03-04T19:50:29.558Z,12.80
2019-03-04T19:52:57.160Z,12.80
2019-03-04T19:57:51.876Z,12.60
2019-03-04T20:00:20.129Z,12.50
2019-03-04T20:02:47.934Z,12.60
2019-03-04T20:05:16.783Z,12.50
2019-03-04T20:07:45.042Z,12.40
2019-03-04T20:12:40.602Z,12.40
2019-03-04T20:15:11.170Z,12.30
2019-03-04T20:20:12.746Z,12.20
2019-03-04T20:22:40.259Z,12.20
2019-03-04T20:25:08.476Z,12.20
2019-03-04T20:27:43.276Z,12.00
2019-03-04T20:30:10.917Z,12.10
2019-03-04T20:32:38.437Z,12.10
2019-03-04T20:35:07.848Z,12.10
2019-03-04T20:37:35.648Z,12.10
2019-03-04T20:40:03.694Z,12.10
2019-03-04T20:42:31.162Z,12.10
2019-03-04T20:44:58.756Z,12.00
2019-03-04T20:47:26.513Z,12.00
2019-03-04T20:49:53.943Z,11.90
2019-03-04T20:52:21.338Z,11.80
2019-03-04T20:54:48.723Z,11.80
2019-03-04T20:57:16.203Z,11.70
2019-03-04T20:59:43.601Z,11.60
2019-03-04T21:02:11.297Z,11.60
2019-03-04T21:04:38.791Z,11.50
2019-03-04T21:09:33.624Z,11.50
2019-03-04T21:12:01.045Z,11.60
2019-03-04T21:14:28.397Z,11.60
2019-03-04T21:16:55.854Z,11.60
2019-03-04T21:19:23.349Z,11.50
2019-03-04T21:24:18.383Z,11.50
2019-03-04T21:26:47.418Z,11.70
2019-03-04T21:29:45.556Z,11.60
2019-03-04T21:35:38.088Z,11.70
2019-03-04T21:38:05.629Z,11.70
2019-03-04T21:41:01.056Z,11.70
2019-03-04T21:43:38.310Z,9.60
2019-03-04T21:46:38.820Z,11.70
2019-03-04T21:49:11.503Z,11.80
2019-03-04T21:52:38.647Z,11.80
2019-03-04T21:55:10.728Z,11.80
2019-03-04T22:00:15.710Z,11.80
2019-03-04T22:03:17.257Z,11.80
2019-03-04T22:05:50.333Z,11.70
2019-03-04T22:08:14.282Z,11.80
2019-03-04T22:10:42.603Z,11.70
2019-03-04T22:13:10.112Z,11.70
2019-03-04T22:15:37.616Z,11.70
2019-03-04T22:20:33.120Z,11.70
2019-03-04T22:23:00.654Z,11.60
2019-03-04T22:25:28.135Z,11.60
2019-03-04T22:27:55.703Z,11.60
2019-03-04T22:30:23.143Z,11.60
2019-03-04T22:32:50.704Z,11.60
2019-03-04T22:35:18.241Z,11.60
2019-03-04T22:37:45.789Z,11.60
2019-03-04T22:40:15.826Z,11.60
2019-03-04T22:45:15.311Z,11.60
2019-03-04T22:47:42.951Z,11.70
2019-03-04T22:50:11.398Z,11.70
2019-03-04T22:52:38.991Z,11.70
2019-03-04T22:55:09.248Z,11.70
2019-03-04T22:57:36.926Z,11.70
2019-03-04T23:00:46.666Z,11.70
2019-03-04T23:03:14.699Z,11.70
2019-03-04T23:05:42.367Z,11.70
2019-03-04T23:08:10.195Z,12.90
2019-03-04T23:10:46.382Z,11.60
2019-03-04T23:13:46.554Z,11.60
2019-03-04T23:16:16.912Z,11.60
2019-03-04T23:18:44.341Z,11.50
2019-03-04T23:21:11.741Z,11.50
2019-03-04T23:23:39.343Z,11.50
2019-03-04T23:26:07.735Z,11.50
2019-03-04T23:28:35.159Z,11.50
2019-03-04T23:31:02.447Z,11.40
2019-03-04T23:33:29.976Z,11.40
2019-03-04T23:35:57.401Z,11.30
2019-03-04T23:38:24.827Z,11.30
2019-03-04T23:40:52.298Z,11.20
2019-03-04T23:43:19.743Z,11.20
2019-03-04T23:45:47.215Z,11.10
2019-03-04T23:48:14.706Z,11.10
2019-03-04T23:50:42.151Z,11.10
2019-03-04T23:53:09.537Z,11.00
2019-03-04T23:55:37.010Z,11.00
2019-03-04T23:58:04.450Z,10.90
